Green Valley, AZ (85614)

4:55 PM MST on August 29, 2016 (GMT -0700)
La Canada Desert Homes I | | Change Station

Elev 2930 ft 31.86 °N, 111.00 °W | Updated 34 seconds ago

Clear
Clear
96.4 °F
Feels Like 94 °F
N
0.0
Wind Variable Wind from SW

Today
High -- | Low -- °F
--% Chance of Precip.
Yesterday
High -- | Low -- °F
Precip. -- in
Pressure 29.77 in
Visibility 10.0 miles
Clouds Clear
Heat Index 94 °F
Dew Point 52 °F
Humidity 22%
Rainfall 0.00 in
Snow Depth Not available.
5:57 AM 6:50 PM
Waning Crescent, 6% visible
METAR KTUS 292353Z 00000KT 10SM CLR 37/03 A2992 RMK AO2 SLP081 T03670028 10378 20322 56017
Pressure 29.77 in
Visibility 10.0 miles
Clouds Clear
Heat Index 94 °F
Dew Point 52 °F
Humidity 22%
Rainfall 0.00 in
Snow Depth Not available.
5:57 AM 6:50 PM
Waning Crescent, 6% visible
METAR KTUS 292353Z 00000KT 10SM CLR 37/03 A2992 RMK AO2 SLP081 T03670028 10378 20322 56017

10-Day Weather Forecast

Almanac

Astronomy

Aug. 29, 2016 Rise Set
Actual Time
Civil Twilight
Nautical Twilight
Astronomical Twilight
Moon
Length of Visible Light
Length of Day
Tomorrow will be .
, % of the Moon is Illuminated

Today's Extremes

State Highs State Lows

Community

WunderPhotos

Upload Photos

1,935,695 photos uploaded!

WunderBlog® & News

Nearby

Air Quality

  Air Quality AQ Index Pollutant
Not available.

Snow Depth

Station Depth Elevation

Earthquake Activity

City Distance Mag. Time & Date
Minimum magnitude displayed is 2.5.

Coastal Water Temperatures

Place Temperature

Stations

Nearby Weather Stations

Station Location Temp. Windchill Dew Point Humidity Wind Precip. Elev Updated Type
                   

Watches & Warnings

There are currently no watches in effect.